createdAt,value
2022-08-02T00:01:11.068Z,8.40
2022-08-02T00:03:41.598Z,8.06
2022-08-02T00:06:09.440Z,7.15
2022-08-02T00:08:36.924Z,6.69
2022-08-02T00:11:04.860Z,6.34
2022-08-02T00:13:35.752Z,6.41
2022-08-02T00:16:03.571Z,6.73
2022-08-02T00:18:31.725Z,6.95
2022-08-02T00:21:00.639Z,6.95
2022-08-02T00:23:31.157Z,7.02
2022-08-02T00:26:01.697Z,7.25
2022-08-02T00:28:32.707Z,7.64
2022-08-02T00:31:03.160Z,7.68
2022-08-02T00:34:27.637Z,7.38
2022-08-02T00:36:28.327Z,7.23
2022-08-02T00:39:03.348Z,7.39
2022-08-02T00:41:35.249Z,7.06
2022-08-02T00:44:02.841Z,6.90
2022-08-02T00:46:30.619Z,6.72
2022-08-02T00:49:09.959Z,6.85
2022-08-02T00:51:39.110Z,6.62
2022-08-02T00:54:16.737Z,6.40
2022-08-02T00:56:49.679Z,6.34
2022-08-02T00:59:18.823Z,6.29
2022-08-02T01:01:54.490Z,6.45
2022-08-02T01:04:31.779Z,6.52
2022-08-02T01:07:14.165Z,6.68
2022-08-02T01:09:50.570Z,6.71
2022-08-02T01:12:18.325Z,6.64
2022-08-02T01:15:15.270Z,6.50
2022-08-02T01:18:24.795Z,6.36
2022-08-02T01:22:03.927Z,6.34
2022-08-02T01:25:40.020Z,6.29
2022-08-02T01:28:51.205Z,6.43
2022-08-02T01:31:32.767Z,6.69
2022-08-02T01:34:21.218Z,6.50
2022-08-02T01:37:09.495Z,6.79
2022-08-02T01:39:41.080Z,7.23
2022-08-02T01:42:13.823Z,7.61
2022-08-02T01:44:49.961Z,7.92
2022-08-02T01:47:32.233Z,7.76
2022-08-02T01:50:06.004Z,7.56
2022-08-02T01:52:53.419Z,7.64
2022-08-02T01:55:56.685Z,7.32
2022-08-02T01:58:24.928Z,7.02
2022-08-02T02:01:02.222Z,7.14
2022-08-02T02:03:34.542Z,7.52
2022-08-02T02:06:10.485Z,7.51
2022-08-02T02:08:42.447Z,7.32
2022-08-02T02:12:06.257Z,7.19
2022-08-02T02:14:12.657Z,7.35
2022-08-02T02:16:48.001Z,7.78
2022-08-02T02:19:24.093Z,7.94
2022-08-02T02:21:56.669Z,7.77
2022-08-02T02:24:25.188Z,7.62
2022-08-02T02:26:53.626Z,7.53
2022-08-02T02:29:29.999Z,7.64
2022-08-02T02:32:06.059Z,7.76
2022-08-02T02:34:45.700Z,7.65
2022-08-02T02:37:29.437Z,7.56
2022-08-02T02:40:08.697Z,7.37
2022-08-02T02:42:38.038Z,7.19
2022-08-02T02:45:11.194Z,7.12
2022-08-02T02:47:41.563Z,6.86
2022-08-02T02:50:11.728Z,6.73
2022-08-02T02:52:56.073Z,6.81
2022-08-02T02:55:27.556Z,6.84
2022-08-02T02:57:59.037Z,6.91
2022-08-02T03:00:45.844Z,7.07
2022-08-02T03:03:19.725Z,7.36
2022-08-02T03:05:50.016Z,7.63
2022-08-02T03:08:27.402Z,7.56
2022-08-02T03:10:58.271Z,7.45
2022-08-02T03:13:33.121Z,7.60
2022-08-02T03:16:08.557Z,7.68
2022-08-02T03:18:40.126Z,7.79
2022-08-02T03:21:12.911Z,7.96
2022-08-02T03:23:46.086Z,7.95
2022-08-02T03:26:13.873Z,7.93
2022-08-02T03:28:42.308Z,7.89
2022-08-02T03:31:10.119Z,7.81
2022-08-02T03:33:38.982Z,7.50
2022-08-02T03:36:17.058Z,7.14
2022-08-02T03:38:51.313Z,7.18
2022-08-02T03:41:24.755Z,7.08
2022-08-02T03:43:52.747Z,7.16
2022-08-02T03:46:24.985Z,7.10
2022-08-02T03:48:55.091Z,6.97
2022-08-02T03:51:25.274Z,7.07
2022-08-02T03:53:53.161Z,7.30
2022-08-02T03:56:22.988Z,7.09
2022-08-02T03:58:51.069Z,7.19
2022-08-02T04:01:21.170Z,7.31
2022-08-02T04:03:48.700Z,7.02
2022-08-02T04:06:19.210Z,7.21
2022-08-02T04:08:54.563Z,7.36
2022-08-02T04:11:33.799Z,7.29
2022-08-02T04:14:11.289Z,7.47
2022-08-02T04:16:47.543Z,7.30
2022-08-02T04:19:28.006Z,7.35
2022-08-02T04:21:57.057Z,7.85
2022-08-02T04:24:43.348Z,7.82
2022-08-02T04:28:15.173Z,7.86
2022-08-02T04:30:09.050Z,7.95
2022-08-02T04:32:43.712Z,7.76
2022-08-02T04:35:19.040Z,7.78
2022-08-02T04:38:09.624Z,7.93
2022-08-02T04:40:41.176Z,7.86
2022-08-02T04:43:08.502Z,8.07
2022-08-02T04:45:41.787Z,8.01
2022-08-02T04:48:08.920Z,8.11
2022-08-02T04:50:42.560Z,8.17
2022-08-02T04:53:13.007Z,7.80
2022-08-02T04:55:43.376Z,7.94
2022-08-02T04:58:39.397Z,8.11
2022-08-02T05:01:16.456Z,7.96
2022-08-02T05:03:46.804Z,8.00
2022-08-02T05:06:19.324Z,8.30
2022-08-02T05:08:52.899Z,8.49
2022-08-02T05:11:25.722Z,8.78
2022-08-02T05:14:03.107Z,8.92
2022-08-02T05:16:31.195Z,8.76
2022-08-02T05:19:02.747Z,8.85
2022-08-02T05:21:31.636Z,9.03
2022-08-02T05:23:59.110Z,9.16
2022-08-02T05:26:35.419Z,8.88
2022-08-02T05:29:04.881Z,8.65
2022-08-02T05:31:32.565Z,8.91
2022-08-02T05:34:00.970Z,9.14
2022-08-02T05:36:30.263Z,9.42
2022-08-02T05:39:05.005Z,9.81
2022-08-02T05:41:39.246Z,10.28
2022-08-02T05:44:16.936Z,10.30
2022-08-02T05:49:46.191Z,10.49
2022-08-02T05:53:20.639Z,10.71
2022-08-02T05:57:43.586Z,10.88
2022-08-02T06:00:44.646Z,10.77
2022-08-02T06:03:48.357Z,9.67
2022-08-02T06:06:25.550Z,9.72
2022-08-02T06:09:26.859Z,10.11
2022-08-02T06:12:33.041Z,10.49
2022-08-02T06:15:08.667Z,10.94
2022-08-02T06:17:41.813Z,10.84
2022-08-02T06:20:14.769Z,10.92
2022-08-02T06:22:53.058Z,11.02
2022-08-02T06:25:51.238Z,11.51
2022-08-02T06:28:11.282Z,11.13
2022-08-02T06:30:40.843Z,11.68
2022-08-02T06:33:11.079Z,11.36
2022-08-02T06:36:27.795Z,11.67
2022-08-02T06:39:42.881Z,11.38
2022-08-02T06:42:26.930Z,11.44
2022-08-02T06:44:57.834Z,11.91
2022-08-02T06:47:26.771Z,11.44
2022-08-02T06:49:55.812Z,11.98
2022-08-02T06:52:31.326Z,12.17
2022-08-02T06:55:02.189Z,12.32
2022-08-02T06:57:30.772Z,12.12
2022-08-02T07:00:01.593Z,11.77
2022-08-02T07:02:32.818Z,12.25
2022-08-02T07:05:00.073Z,11.94
2022-08-02T07:07:28.137Z,11.13
2022-08-02T07:10:00.497Z,11.56
2022-08-02T07:12:31.842Z,11.87
2022-08-02T07:15:01.424Z,12.23
2022-08-02T07:17:29.746Z,12.41
2022-08-02T07:19:58.411Z,12.49
2022-08-02T07:22:28.061Z,12.51
2022-08-02T07:25:01.302Z,12.08
2022-08-02T07:27:32.054Z,12.22
2022-08-02T07:30:00.510Z,12.43
2022-08-02T07:32:34.499Z,11.62
2022-08-02T07:35:03.390Z,12.17
2022-08-02T07:37:57.999Z,12.13
2022-08-02T07:40:25.105Z,12.51
2022-08-02T07:43:00.969Z,12.57
2022-08-02T07:45:32.235Z,12.17
2022-08-02T07:47:59.454Z,12.69
2022-08-02T07:50:28.262Z,12.89
2022-08-02T07:52:57.682Z,12.80
2022-08-02T07:55:35.154Z,12.62
2022-08-02T07:58:11.485Z,12.96
2022-08-02T08:00:51.278Z,12.50
2022-08-02T08:03:18.378Z,12.85
2022-08-02T08:05:57.921Z,13.10
2022-08-02T08:08:35.951Z,13.17
2022-08-02T08:11:10.302Z,13.23
2022-08-02T08:13:37.611Z,13.42
2022-08-02T08:16:06.312Z,13.17
2022-08-02T08:18:48.064Z,13.34
2022-08-02T08:21:15.361Z,13.45
2022-08-02T08:24:00.897Z,13.64
2022-08-02T08:27:03.191Z,14.13
2022-08-02T08:29:54.689Z,14.10
2022-08-02T08:32:29.406Z,13.52
2022-08-02T08:34:56.817Z,13.89
2022-08-02T08:37:27.414Z,13.67
2022-08-02T08:39:57.921Z,13.76
2022-08-02T08:42:29.731Z,13.99
2022-08-02T08:44:59.106Z,14.15
2022-08-02T08:47:51.825Z,13.63
2022-08-02T08:50:26.578Z,14.13
2022-08-02T08:53:18.471Z,14.61
2022-08-02T08:55:48.641Z,14.95
2022-08-02T08:58:15.711Z,14.89
2022-08-02T09:00:42.725Z,15.29
2022-08-02T09:03:10.556Z,15.51
2022-08-02T09:05:40.798Z,15.24
2022-08-02T09:08:13.482Z,15.53
2022-08-02T09:10:48.855Z,14.38
2022-08-02T09:13:38.948Z,14.57
2022-08-02T09:16:14.749Z,15.13
2022-08-02T09:18:46.679Z,15.99
2022-08-02T09:21:17.284Z,15.42
2022-08-02T09:23:53.024Z,16.35
2022-08-02T09:26:29.324Z,15.74
2022-08-02T09:29:03.232Z,15.98
2022-08-02T09:31:33.926Z,16.12
2022-08-02T09:34:01.708Z,16.59
2022-08-02T09:36:43.651Z,15.72
2022-08-02T09:39:15.562Z,16.03
2022-08-02T09:41:46.838Z,16.57
2022-08-02T09:44:21.776Z,16.38
2022-08-02T09:47:00.240Z,16.77
2022-08-02T09:49:33.842Z,17.21
2022-08-02T09:52:02.627Z,15.80
2022-08-02T09:54:30.562Z,16.03
2022-08-02T09:57:01.935Z,16.71
2022-08-02T09:59:30.871Z,16.63
2022-08-02T10:02:04.063Z,16.14
2022-08-02T10:04:34.200Z,16.35
2022-08-02T10:07:14.146Z,17.11
2022-08-02T10:09:46.473Z,17.68
2022-08-02T10:12:15.519Z,17.52
2022-08-02T10:14:44.032Z,17.26
2022-08-02T10:17:12.059Z,18.41
2022-08-02T10:20:03.208Z,17.97
2022-08-02T10:22:27.501Z,18.52
2022-08-02T10:24:55.004Z,18.76
2022-08-02T10:27:25.049Z,18.36
2022-08-02T10:29:58.101Z,18.35
2022-08-02T10:32:37.502Z,19.36
2022-08-02T10:35:19.402Z,18.84
2022-08-02T10:38:01.238Z,17.20
2022-08-02T10:40:58.587Z,16.86
2022-08-02T10:43:43.154Z,18.00
2022-08-02T10:46:37.189Z,19.18
2022-08-02T10:52:18.175Z,19.78
2022-08-02T10:55:01.863Z,19.96
2022-08-02T10:57:33.922Z,19.47
2022-08-02T11:00:27.290Z,18.55
2022-08-02T11:02:54.313Z,18.77
2022-08-02T11:05:42.854Z,18.93
2022-08-02T11:08:23.599Z,19.48
2022-08-02T11:11:26.156Z,19.73
2022-08-02T11:14:14.254Z,19.64
2022-08-02T11:17:02.900Z,20.40
2022-08-02T11:19:35.289Z,20.91
2022-08-02T11:22:11.488Z,21.02
2022-08-02T11:24:54.045Z,20.59
2022-08-02T11:27:29.641Z,19.58
2022-08-02T11:29:56.950Z,21.02
2022-08-02T11:32:30.928Z,20.28
2022-08-02T11:34:59.123Z,20.49
2022-08-02T11:37:46.126Z,21.32
2022-08-02T11:40:19.533Z,20.24
2022-08-02T11:42:50.621Z,20.72
2022-08-02T11:45:28.958Z,20.02
2022-08-02T11:47:57.326Z,21.01
2022-08-02T11:50:29.602Z,21.05
2022-08-02T11:52:58.035Z,20.50
2022-08-02T11:55:34.822Z,20.87
2022-08-02T11:58:07.936Z,21.69
2022-08-02T12:00:36.307Z,20.37
2022-08-02T12:03:07.828Z,21.36
2022-08-02T12:08:25.619Z,20.83
2022-08-02T12:10:52.966Z,22.19
2022-08-02T12:13:20.447Z,22.55
2022-08-02T12:15:48.266Z,20.90
2022-08-02T12:18:39.346Z,20.40
2022-08-02T12:21:29.081Z,21.32
2022-08-02T12:23:59.999Z,21.79
2022-08-02T12:26:29.118Z,22.76
2022-08-02T12:28:59.917Z,23.05
2022-08-02T12:31:56.859Z,23.14
2022-08-02T12:34:31.469Z,23.31
2022-08-02T12:37:08.292Z,20.90
2022-08-02T12:39:41.510Z,22.63
2022-08-02T12:42:12.888Z,22.91
2022-08-02T12:44:59.661Z,22.97
2022-08-02T12:47:36.086Z,22.59
2022-08-02T12:50:31.212Z,22.94
2022-08-02T12:53:17.684Z,22.76
2022-08-02T12:56:03.932Z,22.63
2022-08-02T12:58:46.000Z,21.90
2022-08-02T13:01:20.075Z,21.02
2022-08-02T13:04:10.420Z,22.53
2022-08-02T13:06:45.762Z,22.73
2022-08-02T13:09:17.245Z,21.61
2022-08-02T13:11:45.507Z,21.03
2022-08-02T13:14:14.978Z,21.32
2022-08-02T13:16:45.648Z,22.44
2022-08-02T13:19:15.357Z,23.02
2022-08-02T13:22:01.838Z,22.18
2022-08-02T13:24:40.695Z,22.33
2022-08-02T13:27:21.617Z,22.42
2022-08-02T13:29:54.015Z,23.25
2022-08-02T13:32:22.012Z,23.62
2022-08-02T13:34:51.350Z,23.15
2022-08-02T13:37:18.956Z,22.94
2022-08-02T13:40:00.512Z,21.90
2022-08-02T13:42:36.900Z,22.68
2022-08-02T13:45:12.734Z,23.84
2022-08-02T13:48:04.750Z,22.76
2022-08-02T13:50:32.127Z,22.37
2022-08-02T13:52:59.100Z,23.14
2022-08-02T13:55:26.320Z,24.19
2022-08-02T13:57:54.321Z,21.68
2022-08-02T14:00:34.210Z,24.51
2022-08-02T14:03:06.116Z,23.71
2022-08-02T14:05:47.437Z,22.51
2022-08-02T14:08:24.709Z,23.63
2022-08-02T14:10:57.209Z,23.89
2022-08-02T14:13:24.827Z,22.29
2022-08-02T14:15:51.908Z,22.88
2022-08-02T14:18:22.821Z,23.60
2022-08-02T14:20:49.812Z,24.53
2022-08-02T14:23:19.835Z,23.37
2022-08-02T14:26:14.160Z,23.01
2022-08-02T14:28:57.455Z,22.88
2022-08-02T14:31:27.612Z,22.34
2022-08-02T14:33:54.684Z,23.16
2022-08-02T14:36:27.248Z,22.89
2022-08-02T14:38:59.561Z,23.58
2022-08-02T14:41:26.642Z,24.58
2022-08-02T14:44:16.574Z,23.85
2022-08-02T14:46:45.465Z,22.90
2022-08-02T14:49:14.485Z,22.78
2022-08-02T14:51:43.936Z,21.78
2022-08-02T14:54:14.796Z,22.60
2022-08-02T14:56:51.779Z,22.25
2022-08-02T14:59:19.185Z,22.33
2022-08-02T15:01:46.748Z,21.66
2022-08-02T15:04:13.877Z,22.67
2022-08-02T15:06:41.426Z,23.73
2022-08-02T15:09:13.732Z,22.93
2022-08-02T15:11:47.348Z,23.98
2022-08-02T15:14:34.098Z,21.54
2022-08-02T15:17:01.369Z,22.04
2022-08-02T15:19:56.197Z,20.22
2022-08-02T15:22:33.767Z,22.07
2022-08-02T15:25:00.887Z,21.24
2022-08-02T15:27:30.115Z,21.50
2022-08-02T15:30:00.635Z,21.76
2022-08-02T15:32:28.318Z,22.41
2022-08-02T15:34:55.424Z,21.23
2022-08-02T15:37:25.994Z,21.96
2022-08-02T15:40:02.809Z,21.07
2022-08-02T15:42:30.739Z,21.91
2022-08-02T15:44:59.300Z,21.67
2022-08-02T15:47:32.381Z,20.01
2022-08-02T15:49:59.362Z,21.10
2022-08-02T15:52:26.758Z,21.29
2022-08-02T15:54:53.930Z,20.23
2022-08-02T15:57:21.491Z,20.87
2022-08-02T15:59:48.657Z,20.56
2022-08-02T16:02:18.964Z,20.30
2022-08-02T16:04:47.844Z,20.94
2022-08-02T16:07:15.110Z,19.57
2022-08-02T16:09:45.142Z,20.01
2022-08-02T16:12:18.967Z,20.01
2022-08-02T16:14:46.699Z,19.96
2022-08-02T16:17:48.569Z,19.76
2022-08-02T16:20:05.084Z,20.26
2022-08-02T16:22:32.222Z,20.45
2022-08-02T16:24:59.392Z,19.93
2022-08-02T16:27:27.161Z,19.47
2022-08-02T16:29:54.659Z,19.50
2022-08-02T16:32:22.171Z,19.36
2022-08-02T16:35:07.918Z,19.48
2022-08-02T16:37:51.768Z,19.62
2022-08-02T16:40:24.824Z,19.44
2022-08-02T16:43:00.428Z,19.57
2022-08-02T16:45:32.770Z,19.53
2022-08-02T16:48:05.569Z,20.13
2022-08-02T16:50:33.838Z,20.44
2022-08-02T16:53:00.971Z,20.74
2022-08-02T16:55:34.794Z,19.81
2022-08-02T16:58:01.965Z,20.24
2022-08-02T17:00:30.168Z,20.20
2022-08-02T17:02:59.125Z,20.08
2022-08-02T17:05:37.889Z,18.70
2022-08-02T17:08:31.677Z,18.71
2022-08-02T17:11:03.366Z,19.10
2022-08-02T17:13:32.290Z,18.97
2022-08-02T17:16:20.645Z,19.09
2022-08-02T17:18:49.552Z,19.12
2022-08-02T17:21:18.311Z,18.91
2022-08-02T17:24:05.709Z,19.01
2022-08-02T17:26:34.223Z,18.63
2022-08-02T17:29:16.598Z,18.45
2022-08-02T17:34:36.235Z,18.30
2022-08-02T17:37:05.701Z,18.29
2022-08-02T17:39:44.516Z,18.21
2022-08-02T17:42:23.239Z,18.07
2022-08-02T17:45:25.806Z,17.88
2022-08-02T17:48:04.772Z,18.09
2022-08-02T17:50:34.705Z,17.58
2022-08-02T17:53:02.252Z,17.69
2022-08-02T17:55:33.299Z,17.94
2022-08-02T17:58:00.327Z,17.55
2022-08-02T18:00:38.068Z,17.62
2022-08-02T18:03:07.927Z,17.04
2022-08-02T18:05:40.191Z,16.96
2022-08-02T18:08:23.620Z,17.26
2022-08-02T18:10:56.713Z,17.28
2022-08-02T18:13:24.274Z,17.20
2022-08-02T18:15:59.424Z,16.71
2022-08-02T18:18:29.995Z,16.72
2022-08-02T18:21:15.421Z,16.87
2022-08-02T18:23:49.372Z,16.54
2022-08-02T18:29:06.159Z,16.70
2022-08-02T18:31:39.752Z,16.31
2022-08-02T18:34:10.011Z,15.87
2022-08-02T18:36:37.017Z,15.62
2022-08-02T18:39:16.367Z,15.35
2022-08-02T18:41:47.873Z,15.21
2022-08-02T18:44:19.584Z,14.63
2022-08-02T18:46:49.352Z,13.91
2022-08-02T18:49:16.948Z,13.77
2022-08-02T18:51:45.273Z,13.60
2022-08-02T18:54:12.620Z,13.70
2022-08-02T18:56:40.176Z,13.81
2022-08-02T18:59:16.997Z,13.77
2022-08-02T19:01:50.498Z,13.73
2022-08-02T19:04:26.852Z,13.74
2022-08-02T19:06:56.499Z,13.91
2022-08-02T19:09:23.915Z,13.78
2022-08-02T19:11:51.145Z,13.45
2022-08-02T19:14:27.413Z,13.17
2022-08-02T19:16:58.179Z,12.83
2022-08-02T19:19:29.035Z,12.31
2022-08-02T19:22:15.999Z,12.28
2022-08-02T19:24:47.899Z,12.51
2022-08-02T19:27:15.521Z,12.52
2022-08-02T19:29:50.821Z,12.72
2022-08-02T19:32:42.938Z,12.67
2022-08-02T19:35:19.311Z,12.59
2022-08-02T19:38:05.267Z,12.82
2022-08-02T19:40:32.354Z,12.36
2022-08-02T19:44:26.681Z,12.17
2022-08-02T19:45:51.396Z,11.99
2022-08-02T19:48:24.071Z,11.96
2022-08-02T19:50:56.366Z,11.91
2022-08-02T19:53:28.882Z,12.01
2022-08-02T19:56:02.777Z,11.94
2022-08-02T19:58:44.780Z,11.65
2022-08-02T20:01:14.985Z,11.50
2022-08-02T20:03:51.500Z,11.74
2022-08-02T20:06:29.455Z,11.55
2022-08-02T20:09:01.287Z,11.24
2022-08-02T20:11:34.609Z,11.28
2022-08-02T20:14:05.338Z,11.20
2022-08-02T20:16:34.415Z,11.51
2022-08-02T20:19:04.613Z,11.70
2022-08-02T20:21:35.418Z,11.72
2022-08-02T20:24:09.825Z,11.70
2022-08-02T20:26:47.752Z,11.72
2022-08-02T20:29:17.754Z,11.89
2022-08-02T20:32:05.882Z,11.77
2022-08-02T20:34:36.208Z,11.87
2022-08-02T20:38:00.131Z,12.19
2022-08-02T20:39:52.555Z,11.93
2022-08-02T20:42:23.585Z,11.78
2022-08-02T20:45:00.485Z,11.85
2022-08-02T20:47:39.603Z,11.63
2022-08-02T20:50:31.481Z,11.50
2022-08-02T20:53:04.143Z,11.54
2022-08-02T20:55:32.472Z,11.15
2022-08-02T20:58:04.510Z,11.30
2022-08-02T21:00:32.258Z,11.25
2022-08-02T21:03:02.641Z,11.20
2022-08-02T21:05:54.265Z,11.14
2022-08-02T21:08:21.228Z,11.09
2022-08-02T21:10:51.742Z,11.08
2022-08-02T21:13:24.350Z,10.64
2022-08-02T21:15:57.634Z,10.54
2022-08-02T21:18:40.256Z,10.33
2022-08-02T21:21:10.171Z,10.63
2022-08-02T21:23:44.918Z,10.84
2022-08-02T21:26:19.867Z,10.92
2022-08-02T21:28:55.919Z,10.67
2022-08-02T21:31:29.848Z,10.37
2022-08-02T21:34:00.675Z,10.12
2022-08-02T21:36:32.261Z,10.30
2022-08-02T21:39:04.987Z,10.62
2022-08-02T21:41:46.281Z,10.38
2022-08-02T21:44:21.875Z,10.49
2022-08-02T21:46:56.159Z,10.49
2022-08-02T21:49:41.115Z,10.75
2022-08-02T21:52:14.166Z,10.52
2022-08-02T21:54:45.420Z,10.36
2022-08-02T21:57:15.544Z,10.68
2022-08-02T21:59:52.741Z,10.03
2022-08-02T22:02:30.780Z,10.25
2022-08-02T22:04:59.084Z,10.16
2022-08-02T22:07:38.715Z,10.29
2022-08-02T22:10:10.285Z,10.23
2022-08-02T22:12:38.002Z,10.35
2022-08-02T22:15:11.651Z,10.47
2022-08-02T22:17:53.510Z,10.45
2022-08-02T22:20:39.255Z,10.17
2022-08-02T22:23:12.795Z,10.29
2022-08-02T22:25:44.725Z,10.19
2022-08-02T22:28:39.341Z,10.07
2022-08-02T22:31:04.834Z,10.15
2022-08-02T22:34:01.569Z,10.33
2022-08-02T22:36:44.077Z,10.00
2022-08-02T22:39:19.426Z,9.90
2022-08-02T22:42:05.470Z,9.71
2022-08-02T22:44:35.928Z,9.84
2022-08-02T22:47:13.726Z,9.83
2022-08-02T22:49:54.307Z,9.68
2022-08-02T22:52:24.490Z,9.77
2022-08-02T22:54:51.947Z,9.81
2022-08-02T22:57:30.094Z,9.86
2022-08-02T22:58:44.225Z,16.73
2022-08-02T22:58:48.781Z,18.60
2022-08-02T23:00:00.469Z,9.68
2022-08-02T23:02:27.797Z,9.68
2022-08-02T23:04:55.088Z,9.62
2022-08-02T23:07:22.545Z,9.58
2022-08-02T23:09:49.880Z,9.52
2022-08-02T23:12:20.047Z,9.54
2022-08-02T23:14:51.788Z,9.56
2022-08-02T23:17:38.811Z,9.42
2022-08-02T23:20:09.763Z,9.56
2022-08-02T23:22:37.936Z,9.73
2022-08-02T23:25:07.315Z,9.59
2022-08-02T23:27:35.614Z,9.53
2022-08-02T23:30:04.688Z,9.67
2022-08-02T23:32:31.942Z,9.45
2022-08-02T23:34:59.396Z,9.35
2022-08-02T23:37:27.084Z,9.24
2022-08-02T23:39:54.338Z,9.43
2022-08-02T23:42:23.521Z,9.38
2022-08-02T23:44:51.306Z,9.61
2022-08-02T23:47:19.199Z,9.55
2022-08-02T23:49:46.979Z,9.34
2022-08-02T23:52:14.560Z,9.47
2022-08-02T23:54:42.025Z,9.46
2022-08-02T23:57:20.362Z,9.48
2022-08-02T23:59:54.265Z,9.66
